Time;durP1;ratioP1;P1;durP2;ratioP2;P2;SDS_P1;SDS_P2;PMS_P1;PMS_P2;Temp;Humidity;BMP_temperature;BMP_pressure;BME280_temperature;BME280_humidity;BME280_pressure;Samples;Min_cycle;Max_cycle;Signal;HPM_P1;HPM_P2
2022/12/25 00:00:25;;;;;;;194.20;17.73;;;;;;;4.85;100.00;98627.47;2600894;28;20499;-84
2022/12/25 00:02:01;;;;;;;80.43;12.82;;;;;;;4.60;100.00;98621.44;2602236;28;20056;-88
2022/12/25 00:03:16;;;;;;;70.50;12.75;;;;;;;4.81;100.00;98625.75;2602191;28;20092;-85
2022/12/25 00:04:32;;;;;;;89.57;14.48;;;;;;;5.03;100.00;98623.97;2601287;28;20053;-84
2022/12/25 00:05:47;;;;;;;38.97;12.35;;;;;;;4.78;100.00;98625.75;2601317;28;20518;-84
2022/12/25 00:07:03;;;;;;;25.33;10.23;;;;;;;4.29;100.00;98622.31;2601065;28;20488;-84
2022/12/25 00:08:19;;;;;;;47.60;10.13;;;;;;;4.43;100.00;98629.22;2601092;28;20055;-84
2022/12/25 00:09:34;;;;;;;32.08;10.48;;;;;;;4.50;100.00;98631.81;2601866;28;20071;-83
2022/12/25 00:11:00;;;;;;;38.60;12.25;;;;;;;4.66;100.00;98640.47;2601207;28;20062;-84
2022/12/25 00:12:15;;;;;;;36.55;9.90;;;;;;;4.71;100.00;98644.78;2601682;28;20182;-84
2022/12/25 00:13:31;;;;;;;17.05;8.45;;;;;;;4.83;100.00;98644.75;2596470;28;20049;-83
2022/12/25 00:14:47;;;;;;;16.50;8.63;;;;;;;4.89;100.00;98647.38;2601952;28;20577;-85
2022/12/25 00:16:07;;;;;;;17.05;8.52;;;;;;;4.96;100.00;98648.22;2602343;28;20100;-83
2022/12/25 00:17:23;;;;;;;18.60;9.70;;;;;;;4.66;100.00;98648.25;2599726;28;20045;-83
2022/12/25 00:18:38;;;;;;;19.38;8.98;;;;;;;4.45;100.00;98648.25;2602291;28;20502;-84
2022/12/25 00:19:54;;;;;;;19.27;9.65;;;;;;;4.36;100.00;98649.97;2601152;28;20207;-87
2022/12/25 00:21:10;;;;;;;18.30;8.63;;;;;;;4.10;100.00;98642.16;2602590;28;20076;-84
2022/12/25 00:22:26;;;;;;;22.13;8.00;;;;;;;4.24;100.00;98644.78;2600009;28;20511;-84
2022/12/25 00:23:42;;;;;;;18.52;7.65;;;;;;;4.71;100.00;98649.97;2601843;28;20398;-83
2022/12/25 00:24:57;;;;;;;16.45;6.75;;;;;;;4.81;100.00;98649.09;2600868;28;20392;-83
2022/12/25 00:26:15;;;;;;;17.05;6.38;;;;;;;5.04;100.00;98653.38;2603178;28;20043;-84
2022/12/25 00:27:32;;;;;;;13.45;6.38;;;;;;;4.86;100.00;98647.34;2599721;28;20049;-85
2022/12/25 00:28:51;;;;;;;13.73;6.57;;;;;;;5.07;100.00;98650.78;2602202;28;20565;-84
2022/12/25 00:30:08;;;;;;;15.05;5.50;;;;;;;5.14;100.00;98643.84;2596820;28;20080;-84
2022/12/25 00:31:24;;;;;;;14.35;5.88;;;;;;;5.14;100.00;98651.63;2609774;28;20060;-84
2022/12/25 00:32:41;;;;;;;12.27;5.40;;;;;;;5.18;100.00;98651.63;2607731;28;20060;-84
2022/12/25 00:33:56;;;;;;;12.48;5.60;;;;;;;4.94;100.00;98656.00;2600556;28;20049;-84
2022/12/25 00:35:12;;;;;;;15.55;6.70;;;;;;;4.93;100.00;98646.47;2601819;28;20045;-84
2022/12/25 00:36:28;;;;;;;16.75;6.63;;;;;;;5.15;100.00;98656.78;2602215;28;20057;-84
2022/12/25 00:37:44;;;;;;;28.58;9.90;;;;;;;4.89;100.00;98654.28;2603080;28;20079;-84
2022/12/25 00:38:59;;;;;;;46.55;10.10;;;;;;;4.88;100.00;98655.97;2600678;28;20057;-87
2022/12/25 00:40:15;;;;;;;50.53;10.88;;;;;;;5.01;100.00;98664.63;2602375;28;20041;-85
2022/12/25 00:43:05;;;;;;;21.67;9.45;;;;;;;5.02;100.00;98655.97;2599864;28;20068;-86
2022/12/25 00:44:20;;;;;;;54.30;10.85;;;;;;;4.94;100.00;98652.53;2602015;28;20053;-83
2022/12/25 00:45:36;;;;;;;59.45;11.95;;;;;;;4.78;100.00;98655.13;2601860;28;20045;-86
2022/12/25 00:46:52;;;;;;;63.03;11.45;;;;;;;4.78;100.00;98651.69;2596293;28;20390;-84
2022/12/25 00:48:07;;;;;;;23.70;10.40;;;;;;;4.97;100.00;98647.34;2599955;28;20060;-85
2022/12/25 00:49:23;;;;;;;30.67;10.32;;;;;;;5.04;100.00;98643.84;2601311;28;20072;-84
2022/12/25 00:50:39;;;;;;;72.68;13.15;;;;;;;5.07;100.00;98654.22;2602264;28;20068;-83
2022/12/25 00:51:55;;;;;;;33.42;10.18;;;;;;;4.71;100.00;98648.25;2599542;28;20068;-84
2022/12/25 00:53:11;;;;;;;74.25;12.43;;;;;;;4.63;100.00;98649.97;2599469;28;20140;-84
2022/12/25 00:54:27;;;;;;;22.92;9.27;;;;;;;4.34;100.00;98656.91;2600662;28;20614;-84
2022/12/25 00:55:42;;;;;;;20.52;9.35;;;;;;;4.42;100.00;98645.66;2601995;28;20705;-88
2022/12/25 00:56:58;;;;;;;21.27;8.38;;;;;;;4.76;100.00;98650.84;2600654;28;20608;-84
2022/12/25 00:58:13;;;;;;;18.25;8.05;;;;;;;4.53;100.00;98641.34;2599432;28;20049;-83
2022/12/25 00:59:33;;;;;;;20.17;9.20;;;;;;;4.85;100.00;98648.22;2601270;28;20045;-84
2022/12/25 01:00:48;;;;;;;18.70;8.07;;;;;;;4.77;100.00;98647.38;2596473;28;20476;-83
2022/12/25 01:03:49;;;;;;;15.13;7.15;;;;;;;4.56;100.00;98651.69;2596525;28;20068;-84
2022/12/25 01:05:05;;;;;;;16.83;8.25;;;;;;;4.79;100.00;98645.63;2600406;28;21024;-84
2022/12/25 01:06:21;;;;;;;15.80;7.53;;;;;;;4.50;100.00;98644.78;2600440;28;20560;-84
2022/12/25 01:07:37;;;;;;;20.80;8.50;;;;;;;4.76;100.00;98649.09;2601756;28;20080;-84
2022/12/25 01:10:26;;;;;;;14.07;7.55;;;;;;;4.69;100.00;98646.50;2600342;28;20053;-84
2022/12/25 01:11:42;;;;;;;14.88;6.43;;;;;;;4.95;100.00;98644.75;2601989;28;20054;-84
2022/12/25 01:12:58;;;;;;;13.52;7.25;;;;;;;5.10;100.00;98653.34;2600804;28;20045;-83
2022/12/25 01:14:14;;;;;;;16.95;7.32;;;;;;;5.13;100.00;98653.34;2600884;28;20068;-85
2022/12/25 01:15:30;;;;;;;15.18;6.45;;;;;;;5.20;100.00;98647.28;2596085;28;20053;-85
2022/12/25 01:16:46;;;;;;;15.05;7.35;;;;;;;5.33;100.00;98657.63;2599826;28;20064;-87
2022/12/25 01:18:01;;;;;;;13.00;6.07;;;;;;;5.29;100.00;98663.69;2601942;28;20057;-84
2022/12/25 01:19:17;;;;;;;34.33;7.13;;;;;;;5.12;100.00;98663.75;2601710;28;20463;-84
2022/12/25 01:20:34;;;;;;;13.00;6.20;;;;;;;5.15;100.00;98659.38;2600602;28;20052;-83
2022/12/25 01:21:49;;;;;;;14.23;6.78;;;;;;;5.27;100.00;98660.22;2600843;28;20110;-84
2022/12/25 01:23:05;;;;;;;67.90;13.20;;;;;;;5.27;100.00;98665.41;2599739;28;20092;-84
2022/12/25 01:24:21;;;;;;;15.27;7.88;;;;;;;5.20;100.00;98665.47;2599734;28;20607;-88
2022/12/25 01:25:36;;;;;;;14.00;6.70;;;;;;;5.11;100.00;98665.47;2599436;28;20582;-84
2022/12/25 01:26:53;;;;;;;17.20;7.68;;;;;;;4.85;100.00;98662.94;2600038;28;20076;-84
2022/12/25 01:28:08;;;;;;;14.55;6.82;;;;;;;5.11;100.00;98660.28;2595958;28;20507;-83
2022/12/25 01:29:24;;;;;;;13.85;7.22;;;;;;;5.25;100.00;98659.38;2601352;28;20053;-85
2022/12/25 01:30:47;;;;;;;12.90;6.35;;;;;;;5.15;100.00;98655.94;2601706;28;20049;-84
2022/12/25 01:32:03;;;;;;;9.82;5.95;;;;;;;5.16;100.00;98655.06;2602180;28;20081;-84
2022/12/25 01:33:19;;;;;;;10.00;5.68;;;;;;;5.06;100.00;98656.84;2596993;28;20131;-84
2022/12/25 01:34:35;;;;;;;10.95;5.18;;;;;;;5.04;100.00;98654.22;2600308;28;20165;-84
2022/12/25 01:35:51;;;;;;;10.95;4.88;;;;;;;4.79;100.00;98654.28;2602496;28;20136;-84
2022/12/25 01:37:06;;;;;;;9.85;4.68;;;;;;;4.85;100.00;98657.75;2600451;28;20052;-85
2022/12/25 01:38:22;;;;;;;8.82;4.55;;;;;;;5.05;100.00;98653.38;2601114;28;20485;-84
2022/12/25 01:39:38;;;;;;;10.80;4.43;;;;;;;4.96;100.00;98656.00;2601815;28;20056;-84
2022/12/25 01:40:53;;;;;;;7.25;4.40;;;;;;;5.06;100.00;98656.84;2599570;28;20095;-84
2022/12/25 01:42:20;;;;;;;13.32;5.45;;;;;;;4.99;100.00;98645.59;2600597;28;20102;-84
2022/12/25 01:44:06;;;;;;;9.98;5.82;;;;;;;4.80;100.00;98648.22;2596076;28;20491;-84
2022/12/25 01:45:39;;;;;;;35.22;7.85;;;;;;;4.79;100.00;98638.72;2601460;28;20068;-84
2022/12/25 01:46:55;;;;;;;15.13;6.15;;;;;;;4.95;100.00;98639.56;2622576;28;20082;-85
2022/12/25 01:48:16;;;;;;;20.95;7.78;;;;;;;4.78;100.00;98636.97;2612721;28;20633;-84
2022/12/25 01:49:36;;;;;;;18.98;7.13;;;;;;;4.80;100.00;98640.44;2599477;28;20060;-84
2022/12/25 01:51:00;;;;;;;65.78;9.98;;;;;;;4.91;100.00;98637.84;2602265;28;20049;-85
2022/12/25 01:52:24;;;;;;;66.53;9.25;;;;;;;4.49;100.00;98643.06;2601714;28;20053;-83
2022/12/25 01:53:40;;;;;;;33.90;7.85;;;;;;;4.67;100.00;98638.72;2600354;28;20045;-84
2022/12/25 01:55:02;;;;;;;96.43;11.23;;;;;;;4.80;100.00;98635.25;2600755;28;20045;-84
2022/12/25 01:56:18;;;;;;;39.53;6.47;;;;;;;4.81;100.00;98636.97;2595908;28;20067;-83
2022/12/25 01:57:37;;;;;;;12.73;5.88;;;;;;;4.74;100.00;98636.97;2601838;28;20118;-85
2022/12/25 01:58:55;;;;;;;15.52;5.00;;;;;;;4.50;100.00;98646.53;2600453;28;20582;-85
2022/12/25 02:00:12;;;;;;;25.05;5.88;;;;;;;4.42;100.00;98643.94;2602199;28;20439;-84
2022/12/25 02:01:28;;;;;;;136.45;10.55;;;;;;;4.37;100.00;98646.53;2596790;28;20053;-83
2022/12/25 02:02:44;;;;;;;91.63;9.35;;;;;;;4.33;100.00;98647.41;2602877;28;20144;-83
2022/12/25 02:04:38;;;;;;;86.93;9.95;;;;;;;4.31;100.00;98650.84;2598072;28;20049;-89
2022/12/25 02:05:54;;;;;;;88.22;9.07;;;;;;;4.49;100.00;98648.25;2603368;28;20052;-84
2022/12/25 02:07:19;;;;;;;17.60;5.43;;;;;;;4.11;100.00;98643.88;2601614;28;20068;-83
2022/12/25 02:08:35;;;;;;;23.27;5.57;;;;;;;4.08;100.00;98643.88;2598050;28;20503;-85
2022/12/25 02:09:52;;;;;;;20.58;5.40;;;;;;;4.25;100.00;98651.69;2603598;28;20158;-83
2022/12/25 02:11:55;;;;;;;157.60;9.07;;;;;;;4.03;100.00;98655.97;2603352;28;20055;-84
2022/12/25 02:12:44;;;;;;;127.68;8.02;;;;;;;3.74;100.00;98654.19;2597821;28;20054;-84
2022/12/25 02:14:00;;;;;;;76.88;6.75;;;;;;;3.73;100.00;98653.31;2601885;28;20140;-84
2022/12/25 02:15:25;;;;;;;83.80;7.47;;;;;;;3.74;100.00;98655.03;2602275;28;20099;-83
2022/12/25 02:16:42;;;;;;;14.55;4.47;;;;;;;3.67;100.00;98668.84;2603234;28;20052;-84
2022/12/25 02:18:28;;;;;;;30.02;4.65;;;;;;;3.72;100.00;98659.34;2601958;28;20454;-84
2022/12/25 02:20:02;;;;;;;12.20;4.20;;;;;;;3.94;100.00;98662.00;2603222;28;20148;-84
2022/12/25 02:21:50;;;;;;;8.95;4.30;;;;;;;4.14;100.00;98664.66;2601406;28;20087;-84
2022/12/25 02:23:47;;;;;;;7.32;3.70;;;;;;;4.24;100.00;98661.19;2597947;28;20053;-84
2022/12/25 02:25:23;;;;;;;7.45;4.00;;;;;;;4.37;100.00;98656.00;2616596;28;20088;-85
2022/12/25 02:26:42;;;;;;;7.07;3.38;;;;;;;4.37;100.00;98659.47;2596098;28;20064;-84
2022/12/25 02:28:26;;;;;;;7.53;3.30;;;;;;;4.15;100.00;98653.41;2603735;28;20284;-84
2022/12/25 02:30:05;;;;;;;6.63;3.00;;;;;;;4.05;100.00;98660.31;2601955;28;20056;-84
2022/12/25 02:31:39;;;;;;;12.15;3.40;;;;;;;3.83;100.00;98661.13;2603059;28;20057;-84
2022/12/25 02:35:07;;;;;;;58.70;5.00;;;;;;;3.35;100.00;98661.78;2603357;28;20381;-85
2022/12/25 02:36:29;;;;;;;47.47;4.75;;;;;;;3.41;100.00;98663.53;2603274;28;20592;-89
2022/12/25 02:37:56;;;;;;;30.48;4.50;;;;;;;3.50;100.00;98661.00;2602099;28;20503;-83
2022/12/25 02:41:01;;;;;;;17.55;4.45;;;;;;;3.70;100.00;98658.47;2601781;28;20049;-83
2022/12/25 03:07:12;;;;;;;16.42;3.78;;;;;;;4.11;100.00;98674.97;2603645;28;20509;-86
2022/12/25 03:08:33;;;;;;;18.02;4.00;;;;;;;4.09;100.00;98667.22;2601556;28;20072;-84
2022/12/25 03:11:31;;;;;;;25.73;4.15;;;;;;;4.18;100.00;98662.91;2603868;28;20132;-84
2022/12/25 03:13:22;;;;;;;32.33;4.15;;;;;;;4.20;100.00;98666.38;2602765;28;20087;-83
2022/12/25 03:17:46;;;;;;;32.58;4.00;;;;;;;3.91;100.00;98665.44;2603895;28;20087;-84
2022/12/25 03:26:53;;;;;;;31.73;4.40;;;;;;;4.00;100.00;98667.19;2602927;28;20045;-84
2022/12/25 03:26:53;;;;;;;14.57;3.42;;;;;;;4.17;100.00;98668.94;2603634;28;20084;-84
2022/12/25 03:27:11;;;;;;;41.95;4.22;;;;;;;3.87;100.00;98668.03;2602414;28;20056;-84
2022/12/25 03:28:27;;;;;;;35.95;3.72;;;;;;;3.99;100.00;98665.47;2601232;28;20049;-84
2022/12/25 03:31:36;;;;;;;17.00;4.07;;;;;;;4.04;100.00;98662.91;2600906;28;20479;-83
2022/12/25 03:33:04;;;;;;;33.42;6.15;;;;;;;3.85;100.00;98665.44;2601583;28;20110;-87
2022/12/25 03:36:21;;;;;;;56.47;6.60;;;;;;;3.92;100.00;98664.59;2601967;28;20135;-84
2022/12/25 04:36:50;;;;;;;7.18;2.95;;;;;;;2.84;100.00;98685.66;2600966;28;20046;-84
2022/12/25 04:38:06;;;;;;;7.63;3.15;;;;;;;3.15;100.00;98685.00;2601496;28;20049;-84
2022/12/25 04:39:21;;;;;;;11.88;3.25;;;;;;;3.08;100.00;98684.94;2599990;28;20041;-84
2022/12/25 04:40:37;;;;;;;9.63;3.10;;;;;;;3.20;100.00;98678.97;2602169;28;20526;-87
2022/12/25 04:41:53;;;;;;;49.80;5.28;;;;;;;3.09;100.00;98678.91;2601643;28;20652;-84
2022/12/25 04:43:08;;;;;;;24.98;3.33;;;;;;;3.18;100.00;98677.25;2602972;28;20084;-85
2022/12/25 04:44:24;;;;;;;8.13;3.25;;;;;;;3.37;100.00;98675.63;2602222;28;20056;-84
2022/12/25 04:45:39;;;;;;;13.38;3.63;;;;;;;3.44;100.00;98674.78;2600314;28;20042;-83
2022/12/25 04:46:55;;;;;;;62.15;5.45;;;;;;;2.92;100.00;98677.94;2601368;28;20499;-83
2022/12/25 04:48:11;;;;;;;51.85;5.22;;;;;;;3.04;100.00;98684.91;2599897;28;20045;-86
2022/12/25 04:49:26;;;;;;;9.05;3.83;;;;;;;3.42;100.00;98688.56;2600853;28;20044;-84
2022/12/25 04:50:42;;;;;;;42.80;4.97;;;;;;;3.31;100.00;98685.94;2599810;28;20057;-84
2022/12/25 04:51:57;;;;;;;68.88;5.47;;;;;;;3.51;100.00;98697.25;2601083;28;20051;-87
2022/12/25 04:53:13;;;;;;;55.45;5.35;;;;;;;3.66;100.00;98696.44;2599503;28;20523;-84
2022/12/25 04:54:29;;;;;;;47.60;4.28;;;;;;;3.36;100.00;98694.59;2601468;28;20128;-83
2022/12/25 04:55:44;;;;;;;64.97;4.68;;;;;;;3.36;100.00;98700.63;2601716;28;20054;-83
2022/12/25 04:57:00;;;;;;;80.97;5.50;;;;;;;3.56;100.00;98701.59;2603154;28;20381;-83
2022/12/25 04:58:16;;;;;;;16.67;3.72;;;;;;;3.55;100.00;98702.44;2601387;28;20386;-84
2022/12/25 04:59:32;;;;;;;7.35;3.53;;;;;;;3.51;100.00;98698.97;2603325;28;20049;-83
2022/12/25 05:00:47;;;;;;;27.85;4.63;;;;;;;3.52;100.00;98700.69;2596431;28;20617;-84
2022/12/25 05:02:03;;;;;;;16.02;3.75;;;;;;;3.17;100.00;98715.19;2601344;28;20130;-88
2022/12/25 05:03:18;;;;;;;13.45;3.60;;;;;;;3.14;100.00;98711.69;2600941;28;20089;-85
2022/12/25 05:04:34;;;;;;;9.00;3.60;;;;;;;3.09;100.00;98707.38;2602141;28;20045;-84
2022/12/25 05:05:50;;;;;;;7.50;3.63;;;;;;;3.01;100.00;98711.63;2599922;28;20057;-83
2022/12/25 05:07:05;;;;;;;8.25;3.78;;;;;;;3.13;100.00;98713.44;2599919;28;20481;-83
2022/12/25 05:08:22;;;;;;;8.85;3.63;;;;;;;3.07;100.00;98711.66;2599418;28;20127;-84
2022/12/25 05:09:40;;;;;;;7.60;3.85;;;;;;;3.28;100.00;98712.66;2601969;28;20064;-90
2022/12/25 05:10:56;;;;;;;9.48;3.78;;;;;;;3.21;100.00;98701.41;2601061;28;20061;-87
2022/12/25 05:12:12;;;;;;;6.43;3.60;;;;;;;3.28;100.00;98706.63;2599120;28;20659;-83
2022/12/25 05:13:28;;;;;;;6.72;3.55;;;;;;;3.46;100.00;98705.84;2600030;28;20054;-84
2022/12/25 05:14:43;;;;;;;6.57;3.38;;;;;;;3.62;100.00;98699.88;2600097;28;20068;-84
2022/12/25 05:15:59;;;;;;;8.95;3.55;;;;;;;3.65;100.00;98705.06;2602098;28;20064;-84
2022/12/25 05:17:14;;;;;;;5.95;3.55;;;;;;;3.78;100.00;98698.25;2600265;28;20050;-83
2022/12/25 05:18:30;;;;;;;5.10;3.35;;;;;;;3.47;100.00;98699.81;2602484;28;20048;-84
2022/12/25 05:19:45;;;;;;;5.70;3.08;;;;;;;3.53;100.00;98702.44;2595939;28;20057;-83
2022/12/25 05:21:02;;;;;;;6.53;3.30;;;;;;;3.35;100.00;98704.06;2600909;28;20057;-88
2022/12/25 05:22:18;;;;;;;9.60;3.92;;;;;;;3.55;100.00;98710.22;2602294;28;20127;-84
2022/12/25 05:23:34;;;;;;;7.32;3.60;;;;;;;3.55;100.00;98715.38;2602614;28;20052;-84
2022/12/25 05:24:49;;;;;;;7.20;3.50;;;;;;;3.44;100.00;98707.59;2600652;28;20483;-83
2022/12/25 05:26:06;;;;;;;4.57;2.83;;;;;;;3.57;100.00;98721.44;2600006;28;20072;-83
2022/12/25 05:27:22;;;;;;;5.45;2.90;;;;;;;3.68;100.00;98705.06;2599874;28;20049;-83
2022/12/25 05:28:37;;;;;;;7.82;3.30;;;;;;;3.43;100.00;98708.44;2599480;28;20049;-87
2022/12/25 05:29:53;;;;;;;6.38;2.92;;;;;;;3.53;100.00;98705.00;2602854;28;20057;-84
2022/12/25 05:31:08;;;;;;;6.55;3.33;;;;;;;3.72;100.00;98712.88;2601069;28;20101;-84
2022/12/25 05:32:24;;;;;;;4.55;2.55;;;;;;;3.83;100.00;98705.16;2602472;28;20488;-83
2022/12/25 05:33:40;;;;;;;13.07;3.15;;;;;;;3.56;100.00;98706.75;2602470;28;20044;-84
2022/12/25 05:34:55;;;;;;;8.68;3.05;;;;;;;3.53;100.00;98708.47;2601015;28;20411;-84
2022/12/25 05:36:11;;;;;;;4.32;2.70;;;;;;;3.59;100.00;98711.94;2601647;28;20603;-87
2022/12/25 05:37:27;;;;;;;7.15;3.22;;;;;;;3.37;100.00;98712.72;2601707;28;20698;-83
2022/12/25 05:38:42;;;;;;;8.23;2.90;;;;;;;3.54;100.00;98717.09;2600347;28;20335;-84
2022/12/25 05:39:58;;;;;;;5.68;2.92;;;;;;;3.53;100.00;98716.25;2599707;28;20190;-87
2022/12/25 05:41:14;;;;;;;6.57;2.80;;;;;;;3.67;100.00;98716.28;2620923;28;20078;-84
2022/12/25 05:42:29;;;;;;;7.65;3.47;;;;;;;3.70;100.00;98715.47;2611538;28;20046;-83
2022/12/25 05:43:45;;;;;;;8.27;2.97;;;;;;;3.73;100.00;98715.47;2600592;28;20052;-84
2022/12/25 05:45:00;;;;;;;7.68;3.25;;;;;;;3.70;100.00;98710.28;2599422;28;20046;-83
2022/12/25 05:46:16;;;;;;;7.78;3.25;;;;;;;3.71;100.00;98722.38;2599516;28;20049;-84
2022/12/25 05:47:32;;;;;;;6.25;3.42;;;;;;;3.98;100.00;98719.84;2599420;28;20057;-84
2022/12/25 05:48:47;;;;;;;6.40;3.50;;;;;;;3.84;100.00;98717.25;2601863;28;20049;-85
2022/12/25 05:50:04;;;;;;;4.78;2.78;;;;;;;3.98;100.00;98705.19;2602546;28;20045;-84
2022/12/25 05:51:20;;;;;;;8.02;3.38;;;;;;;3.95;100.00;98706.03;2601084;28;20080;-84
2022/12/25 05:52:35;;;;;;;5.20;2.97;;;;;;;3.91;100.00;98701.72;2602346;28;20495;-84
2022/12/25 05:53:51;;;;;;;7.18;3.53;;;;;;;4.02;100.00;98706.91;2600284;28;20488;-84
2022/12/25 05:55:06;;;;;;;6.85;3.22;;;;;;;3.93;100.00;98705.19;2601959;28;20064;-83
2022/12/25 05:56:22;;;;;;;8.50;3.70;;;;;;;3.80;100.00;98704.28;2601237;28;20084;-84
2022/12/25 05:57:38;;;;;;;5.88;3.25;;;;;;;3.92;100.00;98694.81;2601587;28;20681;-84
2022/12/25 05:58:53;;;;;;;9.68;3.05;;;;;;;3.91;100.00;98693.94;2599557;28;20390;-84
2022/12/25 06:00:09;;;;;;;8.40;3.33;;;;;;;4.03;100.00;98692.25;2599476;28;20060;-84
2022/12/25 06:01:27;;;;;;;6.82;3.45;;;;;;;3.75;100.00;98695.59;2602629;28;20103;-84
2022/12/25 06:02:43;;;;;;;8.52;2.95;;;;;;;3.75;100.00;98693.03;2599496;28;20045;-84
2022/12/25 06:03:58;;;;;;;6.68;3.20;;;;;;;3.86;100.00;98694.78;2600205;28;20487;-86
2022/12/25 06:05:14;;;;;;;6.45;3.30;;;;;;;3.94;100.00;98700.88;2599895;28;20049;-85
2022/12/25 06:06:29;;;;;;;5.50;2.97;;;;;;;3.97;100.00;98698.28;2601748;28;20056;-84
2022/12/25 06:07:45;;;;;;;6.88;3.05;;;;;;;3.61;100.00;98699.88;2600341;28;20472;-84
2022/12/25 06:09:00;;;;;;;6.38;2.95;;;;;;;3.70;100.00;98699.91;2602263;28;20045;-84
2022/12/25 06:10:16;;;;;;;7.82;3.28;;;;;;;3.46;100.00;98700.69;2601053;28;20464;-84
2022/12/25 06:11:32;;;;;;;6.97;3.15;;;;;;;3.41;100.00;98704.94;2596096;28;20046;-85
2022/12/25 06:12:47;;;;;;;6.90;3.45;;;;;;;3.56;100.00;98704.19;2601105;28;20045;-85
2022/12/25 06:14:03;;;;;;;8.85;3.35;;;;;;;3.64;100.00;98702.50;2601021;28;20064;-84
2022/12/25 06:15:19;;;;;;;6.75;3.33;;;;;;;3.49;100.00;98704.16;2599727;28;20056;-84
2022/12/25 06:16:34;;;;;;;5.60;3.60;;;;;;;3.71;100.00;98701.66;2600304;28;20476;-84
2022/12/25 06:17:50;;;;;;;9.95;3.63;;;;;;;3.42;100.00;98704.97;2600448;28;20053;-84
2022/12/25 06:19:06;;;;;;;9.10;3.70;;;;;;;3.46;100.00;98701.53;2601615;28;20450;-84
2022/12/25 06:20:22;;;;;;;9.50;4.00;;;;;;;3.72;100.00;98697.34;2601789;28;20045;-83
2022/12/25 06:21:37;;;;;;;9.40;3.25;;;;;;;3.90;100.00;98692.22;2600379;28;20741;-87
2022/12/25 06:22:53;;;;;;;6.45;3.40;;;;;;;3.98;100.00;98694.81;2599251;28;20111;-84
2022/12/25 06:24:08;;;;;;;5.85;3.10;;;;;;;3.77;100.00;98699.09;2601139;28;20050;-84
2022/12/25 06:25:24;;;;;;;6.85;3.50;;;;;;;3.74;100.00;98699.06;2601038;28;20045;-84
2022/12/25 06:26:40;;;;;;;7.85;3.60;;;;;;;3.75;100.00;98692.16;2601461;28;20534;-85
2022/12/25 06:27:55;;;;;;;8.00;3.33;;;;;;;3.67;100.00;98694.72;2601791;28;20080;-84
2022/12/25 06:29:11;;;;;;;7.35;3.55;;;;;;;3.85;100.00;98690.47;2602570;28;20075;-84
2022/12/25 06:30:26;;;;;;;7.50;3.67;;;;;;;3.94;100.00;98682.75;2599765;28;20519;-84
2022/12/25 06:31:42;;;;;;;10.55;3.97;;;;;;;4.06;100.00;98679.31;2601825;28;20053;-84
2022/12/25 06:32:58;;;;;;;7.00;3.90;;;;;;;3.66;100.00;98677.47;2595919;28;20381;-84
2022/12/25 06:34:15;;;;;;;9.32;3.58;;;;;;;3.37;100.00;98684.22;2601934;28;20492;-84
2022/12/25 06:35:30;;;;;;;8.57;3.78;;;;;;;3.55;100.00;98686.91;2600380;28;20076;-84
2022/12/25 06:36:46;;;;;;;7.72;3.80;;;;;;;3.81;100.00;98687.88;2599697;28;20088;-84
2022/12/25 06:38:02;;;;;;;9.40;4.28;;;;;;;3.82;100.00;98683.53;2601782;28;20065;-84
2022/12/25 06:39:17;;;;;;;7.40;3.58;;;;;;;4.02;100.00;98686.19;2600213;28;20415;-83
2022/12/25 06:40:33;;;;;;;9.13;4.15;;;;;;;3.95;100.00;98689.66;2599989;28;20075;-84
2022/12/25 06:41:49;;;;;;;10.95;5.13;;;;;;;4.06;100.00;98687.06;2600187;28;20080;-85
2022/12/25 06:43:05;;;;;;;9.68;5.00;;;;;;;3.93;100.00;98687.03;2599630;28;20049;-85
2022/12/25 06:44:20;;;;;;;10.75;4.53;;;;;;;4.07;100.00;98692.28;2601244;28;20676;-86
2022/12/25 06:45:36;;;;;;;9.20;4.72;;;;;;;4.02;100.00;98685.34;2600791;28;20500;-84
2022/12/25 06:46:53;;;;;;;9.48;5.00;;;;;;;4.12;100.00;98687.09;2601392;28;20064;-84
2022/12/25 06:48:08;;;;;;;7.03;3.90;;;;;;;4.13;100.00;98683.66;2602305;28;20142;-86
2022/12/25 06:49:24;;;;;;;7.35;4.03;;;;;;;3.99;100.00;98683.59;2601870;28;20049;-87
2022/12/25 06:50:42;;;;;;;7.32;4.20;;;;;;;3.73;100.00;98678.34;2600681;28;20060;-84
2022/12/25 06:51:58;;;;;;;9.65;4.72;;;;;;;3.92;100.00;98682.72;2602656;28;20156;-84
2022/12/25 06:53:14;;;;;;;15.35;5.97;;;;;;;3.89;100.00;98685.31;2601859;28;20532;-87
2022/12/25 06:54:29;;;;;;;15.20;6.32;;;;;;;4.10;100.00;98693.97;2601805;28;20636;-89
2022/12/25 06:55:45;;;;;;;11.88;6.28;;;;;;;3.51;100.00;98696.38;2600636;28;20045;-86
2022/12/25 06:57:01;;;;;;;12.57;5.18;;;;;;;3.35;100.00;98704.06;2600567;28;20053;-85
2022/12/25 06:58:16;;;;;;;11.05;5.45;;;;;;;3.71;100.00;98696.47;2600728;28;20503;-87
2022/12/25 06:59:32;;;;;;;12.82;5.43;;;;;;;3.59;100.00;98688.66;2602304;28;20046;-87
2022/12/25 07:00:47;;;;;;;13.48;6.45;;;;;;;3.38;100.00;98695.47;2599598;28;20503;-86
2022/12/25 07:02:03;;;;;;;10.25;6.05;;;;;;;3.42;100.00;98693.75;2602160;28;20520;-87
2022/12/25 07:03:21;;;;;;;9.98;5.43;;;;;;;3.52;100.00;98691.22;2602707;28;20087;-87
2022/12/25 07:04:41;;;;;;;8.75;5.00;;;;;;;3.69;100.00;98695.59;2601060;28;20137;-86
2022/12/25 07:05:56;;;;;;;10.40;5.88;;;;;;;3.66;100.00;98703.38;2601880;28;20044;-89
2022/12/25 07:07:12;;;;;;;11.15;5.38;;;;;;;3.79;100.00;98710.31;2601863;28;20111;-89
2022/12/25 07:08:28;;;;;;;11.45;5.50;;;;;;;3.67;100.00;98710.28;2602695;28;20076;-87
2022/12/25 07:09:43;;;;;;;9.75;5.35;;;;;;;3.74;100.00;98701.66;2602726;28;20044;-87
2022/12/25 07:10:59;;;;;;;9.10;5.05;;;;;;;3.95;100.00;98700.00;2603509;28;20049;-87
2022/12/25 07:12:18;;;;;;;11.38;6.70;;;;;;;3.93;100.00;98704.31;2611505;28;20263;-89
2022/12/25 07:13:34;;;;;;;18.58;7.57;;;;;;;3.88;100.00;98714.66;2602799;28;20419;-87
2022/12/25 07:14:52;;;;;;;22.70;8.52;;;;;;;3.80;100.00;98718.94;2603931;28;20045;-87
2022/12/25 07:16:08;;;;;;;21.20;8.57;;;;;;;3.74;100.00;98724.97;2600297;28;20060;-88
2022/12/25 07:17:24;;;;;;;21.65;9.15;;;;;;;3.78;100.00;98724.13;2600720;28;20140;-87
2022/12/25 07:18:40;;;;;;;24.65;9.93;;;;;;;4.15;100.00;98717.31;2603642;28;20495;-87
2022/12/25 07:19:56;;;;;;;17.77;8.55;;;;;;;3.94;100.00;98713.81;2603967;28;20053;-87
2022/12/25 07:21:14;;;;;;;19.92;9.20;;;;;;;3.75;100.00;98713.75;2602937;28;20476;-87
2022/12/25 07:22:30;;;;;;;35.42;12.80;;;;;;;3.87;100.00;98709.47;2603332;28;20084;-88
2022/12/25 07:23:48;;;;;;;27.92;11.75;;;;;;;3.91;100.00;98706.03;2600737;28;20434;-88
2022/12/25 07:25:04;;;;;;;23.38;10.95;;;;;;;3.50;100.00;98711.06;2602633;28;20064;-87
2022/12/25 07:26:19;;;;;;;25.30;11.75;;;;;;;3.53;100.00;98708.47;2602789;28;20219;-90
2022/12/25 07:27:35;;;;;;;26.50;11.02;;;;;;;3.83;100.00;98716.34;2602477;28;20623;-87
2022/12/25 07:28:51;;;;;;;27.13;11.30;;;;;;;3.92;100.00;98731.94;2602293;28;20051;-91
2022/12/25 07:30:07;;;;;;;21.77;10.25;;;;;;;4.07;100.00;98722.50;2602028;28;20392;-88
2022/12/25 07:31:22;;;;;;;20.73;9.90;;;;;;;4.10;100.00;98723.38;2600803;28;20503;-87
2022/12/25 07:32:38;;;;;;;22.45;8.98;;;;;;;4.14;100.00;98720.78;2601434;28;20053;-86
2022/12/25 07:33:54;;;;;;;14.75;8.25;;;;;;;3.91;100.00;98734.50;2603726;28;20403;-87
2022/12/25 07:35:09;;;;;;;19.35;8.48;;;;;;;4.08;100.00;98722.50;2600532;28;20053;-91
2022/12/25 07:36:25;;;;;;;14.95;7.78;;;;;;;4.29;100.00;98730.31;2601371;28;20480;-87
2022/12/25 07:37:41;;;;;;;15.35;7.57;;;;;;;4.35;100.00;98723.44;2600471;28;20053;-87
2022/12/25 07:38:56;;;;;;;14.40;7.95;;;;;;;4.45;100.00;98728.59;2601837;28;20407;-88
2022/12/25 07:40:12;;;;;;;20.67;8.82;;;;;;;4.18;100.00;98722.50;2601666;28;20128;-88
2022/12/25 07:41:27;;;;;;;20.33;8.50;;;;;;;4.00;100.00;98729.38;2602013;28;20050;-87
2022/12/25 07:42:43;;;;;;;16.90;8.48;;;;;;;4.09;100.00;98734.59;2600917;28;20042;-87
2022/12/25 07:43:59;;;;;;;14.75;7.28;;;;;;;4.29;100.00;98730.31;2602497;28;20053;-87
2022/12/25 07:45:14;;;;;;;14.27;6.90;;;;;;;4.52;100.00;98732.94;2603486;28;20044;-87
2022/12/25 07:46:30;;;;;;;11.02;5.65;;;;;;;4.57;100.00;98732.97;2596668;28;20052;-87
2022/12/25 07:47:46;;;;;;;14.63;5.72;;;;;;;4.52;100.00;98727.78;2602245;28;20067;-87
2022/12/25 07:49:01;;;;;;;11.05;5.80;;;;;;;4.24;100.00;98728.56;2603394;28;20052;-87